sensor_id;sensor_type;location;lat;lon;timestamp;P1;durP1;ratioP1;P2;durP2;ratioP2
23119;SDS011;11729;50.836;4.330;2023-02-01T00:01:43;54.08;;;23.70;;
23119;SDS011;11729;50.836;4.330;2023-02-01T00:04:09;57.42;;;23.73;;
23119;SDS011;11729;50.836;4.330;2023-02-01T00:06:35;51.30;;;25.15;;
23119;SDS011;11729;50.836;4.330;2023-02-01T00:09:01;46.92;;;25.13;;
23119;SDS011;11729;50.836;4.330;2023-02-01T00:11:26;48.42;;;23.95;;
23119;SDS011;11729;50.836;4.330;2023-02-01T00:13:53;50.60;;;24.75;;
23119;SDS011;11729;50.836;4.330;2023-02-01T00:16:23;55.53;;;25.10;;
23119;SDS011;11729;50.836;4.330;2023-02-01T00:18:51;56.50;;;26.15;;
23119;SDS011;11729;50.836;4.330;2023-02-01T00:21:21;53.28;;;25.55;;
23119;SDS011;11729;50.836;4.330;2023-02-01T00:23:47;52.40;;;24.98;;
23119;SDS011;11729;50.836;4.330;2023-02-01T00:26:16;55.92;;;25.38;;
23119;SDS011;11729;50.836;4.330;2023-02-01T00:28:56;56.85;;;25.77;;
23119;SDS011;11729;50.836;4.330;2023-02-01T00:31:22;53.47;;;25.08;;
23119;SDS011;11729;50.836;4.330;2023-02-01T00:33:48;49.95;;;24.73;;
23119;SDS011;11729;50.836;4.330;2023-02-01T00:36:13;53.47;;;25.33;;
23119;SDS011;11729;50.836;4.330;2023-02-01T00:38:39;57.38;;;25.05;;
23119;SDS011;11729;50.836;4.330;2023-02-01T00:41:06;57.72;;;23.65;;
23119;SDS011;11729;50.836;4.330;2023-02-01T00:43:34;55.83;;;23.40;;
23119;SDS011;11729;50.836;4.330;2023-02-01T00:46:00;47.20;;;20.73;;
23119;SDS011;11729;50.836;4.330;2023-02-01T00:48:26;46.88;;;21.15;;
23119;SDS011;11729;50.836;4.330;2023-02-01T00:50:51;47.50;;;20.98;;
23119;SDS011;11729;50.836;4.330;2023-02-01T00:53:18;47.17;;;20.02;;
23119;SDS011;11729;50.836;4.330;2023-02-01T00:55:44;43.33;;;19.98;;
23119;SDS011;11729;50.836;4.330;2023-02-01T00:58:10;49.17;;;21.52;;
23119;SDS011;11729;50.836;4.330;2023-02-01T01:00:37;50.40;;;21.60;;
23119;SDS011;11729;50.836;4.330;2023-02-01T01:03:05;44.50;;;21.00;;
23119;SDS011;11729;50.836;4.330;2023-02-01T01:05:44;46.15;;;18.67;;
23119;SDS011;11729;50.836;4.330;2023-02-01T01:08:10;38.57;;;19.63;;
23119;SDS011;11729;50.836;4.330;2023-02-01T01:10:36;53.22;;;18.98;;
23119;SDS011;11729;50.836;4.330;2023-02-01T01:13:02;37.58;;;17.92;;
23119;SDS011;11729;50.836;4.330;2023-02-01T01:15:28;33.60;;;16.52;;
23119;SDS011;11729;50.836;4.330;2023-02-01T01:17:53;41.50;;;15.52;;
23119;SDS011;11729;50.836;4.330;2023-02-01T01:20:19;39.78;;;15.43;;
23119;SDS011;11729;50.836;4.330;2023-02-01T01:22:46;41.92;;;14.73;;
23119;SDS011;11729;50.836;4.330;2023-02-01T01:25:12;25.35;;;12.82;;
23119;SDS011;11729;50.836;4.330;2023-02-01T01:27:38;27.85;;;12.85;;
23119;SDS011;11729;50.836;4.330;2023-02-01T01:30:05;38.92;;;13.15;;
23119;SDS011;11729;50.836;4.330;2023-02-01T01:32:32;36.63;;;12.95;;
23119;SDS011;11729;50.836;4.330;2023-02-01T01:34:58;31.50;;;11.80;;
23119;SDS011;11729;50.836;4.330;2023-02-01T01:37:23;29.83;;;11.00;;
23119;SDS011;11729;50.836;4.330;2023-02-01T01:39:49;35.38;;;11.73;;
23119;SDS011;11729;50.836;4.330;2023-02-01T01:42:14;28.63;;;10.23;;
23119;SDS011;11729;50.836;4.330;2023-02-01T01:45:00;34.55;;;10.30;;
23119;SDS011;11729;50.836;4.330;2023-02-01T01:47:40;33.10;;;10.57;;
23119;SDS011;11729;50.836;4.330;2023-02-01T01:50:11;23.80;;;9.40;;
23119;SDS011;11729;50.836;4.330;2023-02-01T01:52:41;27.70;;;10.35;;
23119;SDS011;11729;50.836;4.330;2023-02-01T01:55:13;33.08;;;11.07;;
23119;SDS011;11729;50.836;4.330;2023-02-01T01:57:42;26.55;;;8.90;;
23119;SDS011;11729;50.836;4.330;2023-02-01T02:00:12;33.15;;;9.93;;
23119;SDS011;11729;50.836;4.330;2023-02-01T02:02:41;32.65;;;9.88;;
23119;SDS011;11729;50.836;4.330;2023-02-01T02:05:09;24.45;;;10.00;;
23119;SDS011;11729;50.836;4.330;2023-02-01T02:07:37;32.88;;;10.48;;
23119;SDS011;11729;50.836;4.330;2023-02-01T02:10:08;27.10;;;9.68;;
23119;SDS011;11729;50.836;4.330;2023-02-01T02:12:38;26.92;;;9.65;;
23119;SDS011;11729;50.836;4.330;2023-02-01T02:15:06;25.98;;;10.18;;
23119;SDS011;11729;50.836;4.330;2023-02-01T02:30:48;24.40;;;10.35;;
23119;SDS011;11729;50.836;4.330;2023-02-01T02:33:46;29.40;;;10.30;;
23119;SDS011;11729;50.836;4.330;2023-02-01T02:42:28;21.95;;;9.95;;
23119;SDS011;11729;50.836;4.330;2023-02-01T02:45:28;21.98;;;9.85;;
23119;SDS011;11729;50.836;4.330;2023-02-01T02:51:24;29.55;;;10.30;;
23119;SDS011;11729;50.836;4.330;2023-02-01T02:54:16;21.90;;;9.77;;
23119;SDS011;11729;50.836;4.330;2023-02-01T02:57:23;32.72;;;10.70;;
23119;SDS011;11729;50.836;4.330;2023-02-01T03:00:13;25.75;;;10.02;;
23119;SDS011;11729;50.836;4.330;2023-02-01T03:03:01;30.23;;;9.30;;
23119;SDS011;11729;50.836;4.330;2023-02-01T03:05:46;30.83;;;9.70;;
23119;SDS011;11729;50.836;4.330;2023-02-01T03:08:19;29.95;;;8.88;;
23119;SDS011;11729;50.836;4.330;2023-02-01T03:13:36;25.83;;;9.10;;
23119;SDS011;11729;50.836;4.330;2023-02-01T03:18:58;24.95;;;9.57;;
23119;SDS011;11729;50.836;4.330;2023-02-01T03:21:41;35.92;;;10.38;;
23119;SDS011;11729;50.836;4.330;2023-02-01T03:24:12;24.83;;;10.80;;
23119;SDS011;11729;50.836;4.330;2023-02-01T03:26:45;32.00;;;9.65;;
23119;SDS011;11729;50.836;4.330;2023-02-01T03:29:29;30.70;;;9.82;;
23119;SDS011;11729;50.836;4.330;2023-02-01T03:32:01;27.92;;;9.60;;
23119;SDS011;11729;50.836;4.330;2023-02-01T03:34:27;25.20;;;10.43;;
23119;SDS011;11729;50.836;4.330;2023-02-01T03:37:03;27.10;;;9.35;;
23119;SDS011;11729;50.836;4.330;2023-02-01T03:39:36;31.17;;;9.95;;
23119;SDS011;11729;50.836;4.330;2023-02-01T03:42:17;31.55;;;9.63;;
23119;SDS011;11729;50.836;4.330;2023-02-01T03:47:37;30.13;;;9.13;;
23119;SDS011;11729;50.836;4.330;2023-02-01T03:50:08;26.08;;;8.90;;
23119;SDS011;11729;50.836;4.330;2023-02-01T03:55:27;25.50;;;9.02;;
23119;SDS011;11729;50.836;4.330;2023-02-01T03:57:56;30.63;;;9.55;;
23119;SDS011;11729;50.836;4.330;2023-02-01T04:00:27;28.90;;;10.10;;
23119;SDS011;11729;50.836;4.330;2023-02-01T04:02:53;25.33;;;9.15;;
23119;SDS011;11729;50.836;4.330;2023-02-01T04:05:20;30.15;;;9.70;;
23119;SDS011;11729;50.836;4.330;2023-02-01T04:07:46;27.67;;;9.07;;
23119;SDS011;11729;50.836;4.330;2023-02-01T04:10:12;31.38;;;10.07;;
23119;SDS011;11729;50.836;4.330;2023-02-01T04:12:37;27.20;;;8.93;;
23119;SDS011;11729;50.836;4.330;2023-02-01T04:15:03;28.30;;;9.32;;
23119;SDS011;11729;50.836;4.330;2023-02-01T04:17:29;29.50;;;9.43;;
23119;SDS011;11729;50.836;4.330;2023-02-01T04:19:55;39.95;;;8.63;;
23119;SDS011;11729;50.836;4.330;2023-02-01T04:22:21;31.48;;;9.77;;
23119;SDS011;11729;50.836;4.330;2023-02-01T04:24:46;30.77;;;9.82;;
23119;SDS011;11729;50.836;4.330;2023-02-01T04:27:12;43.90;;;10.05;;
23119;SDS011;11729;50.836;4.330;2023-02-01T04:29:39;33.28;;;10.00;;
23119;SDS011;11729;50.836;4.330;2023-02-01T04:32:04;29.10;;;9.35;;
23119;SDS011;11729;50.836;4.330;2023-02-01T04:34:30;27.73;;;9.95;;
23119;SDS011;11729;50.836;4.330;2023-02-01T04:36:56;33.25;;;9.15;;
23119;SDS011;11729;50.836;4.330;2023-02-01T04:39:21;29.23;;;9.80;;
23119;SDS011;11729;50.836;4.330;2023-02-01T04:41:47;33.47;;;8.95;;
23119;SDS011;11729;50.836;4.330;2023-02-01T04:44:14;29.08;;;10.10;;
23119;SDS011;11729;50.836;4.330;2023-02-01T04:46:41;26.02;;;9.40;;
23119;SDS011;11729;50.836;4.330;2023-02-01T04:49:08;31.15;;;9.98;;
23119;SDS011;11729;50.836;4.330;2023-02-01T04:51:35;26.25;;;9.40;;
23119;SDS011;11729;50.836;4.330;2023-02-01T04:54:01;29.13;;;8.93;;
23119;SDS011;11729;50.836;4.330;2023-02-01T04:56:26;27.05;;;9.50;;
23119;SDS011;11729;50.836;4.330;2023-02-01T04:58:52;27.88;;;9.30;;
23119;SDS011;11729;50.836;4.330;2023-02-01T05:01:18;31.27;;;9.55;;
23119;SDS011;11729;50.836;4.330;2023-02-01T05:03:45;27.75;;;9.23;;
23119;SDS011;11729;50.836;4.330;2023-02-01T05:06:10;29.25;;;9.85;;
23119;SDS011;11729;50.836;4.330;2023-02-01T05:08:36;34.03;;;9.40;;
23119;SDS011;11729;50.836;4.330;2023-02-01T05:11:01;28.73;;;9.32;;
23119;SDS011;11729;50.836;4.330;2023-02-01T05:13:29;28.33;;;9.48;;
23119;SDS011;11729;50.836;4.330;2023-02-01T05:16:14;28.20;;;9.55;;
23119;SDS011;11729;50.836;4.330;2023-02-01T05:18:40;35.00;;;9.60;;
23119;SDS011;11729;50.836;4.330;2023-02-01T05:21:05;24.73;;;9.10;;
23119;SDS011;11729;50.836;4.330;2023-02-01T05:23:31;36.38;;;9.85;;
23119;SDS011;11729;50.836;4.330;2023-02-01T05:26:00;29.80;;;9.85;;
23119;SDS011;11729;50.836;4.330;2023-02-01T05:28:26;33.28;;;9.35;;
23119;SDS011;11729;50.836;4.330;2023-02-01T05:30:53;35.17;;;10.05;;
23119;SDS011;11729;50.836;4.330;2023-02-01T05:33:19;34.03;;;10.32;;
23119;SDS011;11729;50.836;4.330;2023-02-01T05:35:45;25.30;;;8.82;;
23119;SDS011;11729;50.836;4.330;2023-02-01T05:38:10;38.85;;;10.18;;
23119;SDS011;11729;50.836;4.330;2023-02-01T05:40:36;29.58;;;9.55;;
23119;SDS011;11729;50.836;4.330;2023-02-01T05:43:02;28.52;;;9.30;;
23119;SDS011;11729;50.836;4.330;2023-02-01T05:45:28;22.85;;;9.68;;
23119;SDS011;11729;50.836;4.330;2023-02-01T05:47:54;29.20;;;9.82;;
23119;SDS011;11729;50.836;4.330;2023-02-01T05:50:19;38.03;;;10.73;;
23119;SDS011;11729;50.836;4.330;2023-02-01T05:52:45;30.35;;;9.27;;
23119;SDS011;11729;50.836;4.330;2023-02-01T05:55:10;23.98;;;9.95;;
23119;SDS011;11729;50.836;4.330;2023-02-01T05:57:36;31.63;;;10.45;;
23119;SDS011;11729;50.836;4.330;2023-02-01T06:00:02;28.45;;;10.68;;
23119;SDS011;11729;50.836;4.330;2023-02-01T06:02:29;28.80;;;10.27;;
23119;SDS011;11729;50.836;4.330;2023-02-01T06:05:01;35.42;;;9.70;;
23119;SDS011;11729;50.836;4.330;2023-02-01T06:07:27;33.92;;;10.63;;
23119;SDS011;11729;50.836;4.330;2023-02-01T06:09:52;24.17;;;9.80;;
23119;SDS011;11729;50.836;4.330;2023-02-01T06:12:18;34.85;;;9.98;;
23119;SDS011;11729;50.836;4.330;2023-02-01T06:14:43;31.08;;;9.40;;
23119;SDS011;11729;50.836;4.330;2023-02-01T06:17:10;27.33;;;8.95;;
23119;SDS011;11729;50.836;4.330;2023-02-01T06:19:35;36.25;;;10.23;;
23119;SDS011;11729;50.836;4.330;2023-02-01T06:22:01;27.42;;;9.20;;
23119;SDS011;11729;50.836;4.330;2023-02-01T06:24:26;35.97;;;9.93;;
23119;SDS011;11729;50.836;4.330;2023-02-01T06:26:52;36.92;;;10.60;;
23119;SDS011;11729;50.836;4.330;2023-02-01T06:29:18;29.50;;;9.82;;
23119;SDS011;11729;50.836;4.330;2023-02-01T06:31:43;31.27;;;10.10;;
23119;SDS011;11729;50.836;4.330;2023-02-01T06:34:09;32.92;;;10.25;;
23119;SDS011;11729;50.836;4.330;2023-02-01T06:36:34;29.17;;;10.30;;
23119;SDS011;11729;50.836;4.330;2023-02-01T06:39:01;32.72;;;9.30;;
23119;SDS011;11729;50.836;4.330;2023-02-01T06:41:27;35.22;;;10.30;;
23119;SDS011;11729;50.836;4.330;2023-02-01T06:43:54;26.88;;;9.30;;
23119;SDS011;11729;50.836;4.330;2023-02-01T06:46:20;37.65;;;9.90;;
23119;SDS011;11729;50.836;4.330;2023-02-01T06:48:46;31.02;;;10.00;;
23119;SDS011;11729;50.836;4.330;2023-02-01T06:51:19;41.95;;;10.57;;
23119;SDS011;11729;50.836;4.330;2023-02-01T06:53:52;34.33;;;9.55;;
23119;SDS011;11729;50.836;4.330;2023-02-01T06:56:17;29.95;;;9.65;;
23119;SDS011;11729;50.836;4.330;2023-02-01T06:58:43;39.10;;;10.82;;
23119;SDS011;11729;50.836;4.330;2023-02-01T07:01:09;38.35;;;11.02;;
23119;SDS011;11729;50.836;4.330;2023-02-01T07:03:35;34.95;;;10.80;;
23119;SDS011;11729;50.836;4.330;2023-02-01T07:06:01;32.55;;;9.80;;
23119;SDS011;11729;50.836;4.330;2023-02-01T07:08:29;29.98;;;10.25;;
23119;SDS011;11729;50.836;4.330;2023-02-01T07:11:02;35.38;;;10.55;;
23119;SDS011;11729;50.836;4.330;2023-02-01T07:13:29;27.23;;;9.82;;
23119;SDS011;11729;50.836;4.330;2023-02-01T07:15:59;31.38;;;10.20;;
23119;SDS011;11729;50.836;4.330;2023-02-01T07:18:26;33.05;;;10.23;;
23119;SDS011;11729;50.836;4.330;2023-02-01T07:20:53;61.97;;;24.23;;
23119;SDS011;11729;50.836;4.330;2023-02-01T07:23:19;41.15;;;15.68;;
23119;SDS011;11729;50.836;4.330;2023-02-01T07:25:46;38.05;;;11.30;;
23119;SDS011;11729;50.836;4.330;2023-02-01T07:28:13;34.60;;;11.35;;
23119;SDS011;11729;50.836;4.330;2023-02-01T07:30:39;26.83;;;10.57;;
23119;SDS011;11729;50.836;4.330;2023-02-01T07:33:06;34.45;;;10.35;;
23119;SDS011;11729;50.836;4.330;2023-02-01T07:35:34;33.03;;;9.70;;
23119;SDS011;11729;50.836;4.330;2023-02-01T07:38:01;45.20;;;13.63;;
23119;SDS011;11729;50.836;4.330;2023-02-01T07:40:28;38.83;;;15.27;;
23119;SDS011;11729;50.836;4.330;2023-02-01T07:42:54;31.92;;;10.80;;
23119;SDS011;11729;50.836;4.330;2023-02-01T07:45:20;37.10;;;11.25;;
23119;SDS011;11729;50.836;4.330;2023-02-01T07:47:46;32.53;;;10.55;;
23119;SDS011;11729;50.836;4.330;2023-02-01T07:50:12;35.03;;;10.10;;
23119;SDS011;11729;50.836;4.330;2023-02-01T07:52:38;33.88;;;10.40;;
23119;SDS011;11729;50.836;4.330;2023-02-01T07:55:05;37.10;;;10.75;;
23119;SDS011;11729;50.836;4.330;2023-02-01T07:57:32;39.28;;;11.48;;
23119;SDS011;11729;50.836;4.330;2023-02-01T07:59:57;34.75;;;11.23;;
23119;SDS011;11729;50.836;4.330;2023-02-01T08:02:42;32.20;;;10.70;;
23119;SDS011;11729;50.836;4.330;2023-02-01T08:05:08;34.53;;;10.35;;
23119;SDS011;11729;50.836;4.330;2023-02-01T08:07:34;35.72;;;10.20;;
23119;SDS011;11729;50.836;4.330;2023-02-01T08:09:59;28.65;;;9.70;;
23119;SDS011;11729;50.836;4.330;2023-02-01T08:12:25;31.92;;;9.52;;
23119;SDS011;11729;50.836;4.330;2023-02-01T08:14:52;27.10;;;10.25;;
23119;SDS011;11729;50.836;4.330;2023-02-01T08:17:18;33.80;;;10.52;;
23119;SDS011;11729;50.836;4.330;2023-02-01T08:19:44;33.88;;;9.82;;
23119;SDS011;11729;50.836;4.330;2023-02-01T08:22:10;26.67;;;9.77;;
23119;SDS011;11729;50.836;4.330;2023-02-01T08:24:36;27.35;;;9.63;;
23119;SDS011;11729;50.836;4.330;2023-02-01T08:27:04;31.45;;;9.95;;
23119;SDS011;11729;50.836;4.330;2023-02-01T08:29:30;48.08;;;17.55;;
23119;SDS011;11729;50.836;4.330;2023-02-01T08:31:55;44.33;;;13.65;;
23119;SDS011;11729;50.836;4.330;2023-02-01T08:34:21;28.75;;;11.18;;
23119;SDS011;11729;50.836;4.330;2023-02-01T08:36:47;34.92;;;11.80;;
23119;SDS011;11729;50.836;4.330;2023-02-01T08:39:12;42.58;;;11.80;;
23119;SDS011;11729;50.836;4.330;2023-02-01T08:41:38;38.22;;;10.63;;
23119;SDS011;11729;50.836;4.330;2023-02-01T08:44:04;36.83;;;10.60;;
23119;SDS011;11729;50.836;4.330;2023-02-01T08:46:30;30.70;;;10.70;;
23119;SDS011;11729;50.836;4.330;2023-02-01T08:48:56;29.08;;;9.68;;
23119;SDS011;11729;50.836;4.330;2023-02-01T08:51:22;27.52;;;9.57;;
23119;SDS011;11729;50.836;4.330;2023-02-01T08:53:48;30.92;;;9.95;;
23119;SDS011;11729;50.836;4.330;2023-02-01T08:56:15;29.45;;;10.50;;
23119;SDS011;11729;50.836;4.330;2023-02-01T08:58:42;34.97;;;10.73;;
23119;SDS011;11729;50.836;4.330;2023-02-01T09:01:09;29.73;;;10.52;;
23119;SDS011;11729;50.836;4.330;2023-02-01T09:03:37;34.20;;;11.15;;
23119;SDS011;11729;50.836;4.330;2023-02-01T09:06:04;33.35;;;11.10;;
23119;SDS011;11729;50.836;4.330;2023-02-01T09:08:36;30.48;;;10.85;;
23119;SDS011;11729;50.836;4.330;2023-02-01T09:11:03;37.78;;;11.27;;
23119;SDS011;11729;50.836;4.330;2023-02-01T09:13:31;44.55;;;18.17;;
23119;SDS011;11729;50.836;4.330;2023-02-01T09:15:58;30.20;;;12.15;;
23119;SDS011;11729;50.836;4.330;2023-02-01T09:18:24;29.15;;;9.90;;
23119;SDS011;11729;50.836;4.330;2023-02-01T09:20:50;32.90;;;10.77;;
23119;SDS011;11729;50.836;4.330;2023-02-01T09:23:16;27.20;;;9.95;;
23119;SDS011;11729;50.836;4.330;2023-02-01T09:25:42;32.25;;;10.20;;
23119;SDS011;11729;50.836;4.330;2023-02-01T09:28:07;26.80;;;10.27;;
23119;SDS011;11729;50.836;4.330;2023-02-01T09:30:34;28.80;;;10.07;;
23119;SDS011;11729;50.836;4.330;2023-02-01T09:33:01;25.33;;;9.80;;
23119;SDS011;11729;50.836;4.330;2023-02-01T09:35:28;24.08;;;9.20;;
23119;SDS011;11729;50.836;4.330;2023-02-01T09:37:54;30.63;;;10.10;;
23119;SDS011;11729;50.836;4.330;2023-02-01T09:40:20;25.67;;;9.85;;
23119;SDS011;11729;50.836;4.330;2023-02-01T09:42:49;29.48;;;9.55;;
23119;SDS011;11729;50.836;4.330;2023-02-01T09:45:24;33.45;;;13.48;;
23119;SDS011;11729;50.836;4.330;2023-02-01T09:48:02;29.75;;;10.95;;
23119;SDS011;11729;50.836;4.330;2023-02-01T09:50:44;23.98;;;9.90;;
23119;SDS011;11729;50.836;4.330;2023-02-01T09:53:32;33.65;;;9.40;;
23119;SDS011;11729;50.836;4.330;2023-02-01T10:01:46;30.83;;;8.77;;
23119;SDS011;11729;50.836;4.330;2023-02-01T10:04:13;33.05;;;9.18;;
23119;SDS011;11729;50.836;4.330;2023-02-01T10:09:29;25.70;;;9.20;;
23119;SDS011;11729;50.836;4.330;2023-02-01T10:12:33;28.65;;;8.45;;
23119;SDS011;11729;50.836;4.330;2023-02-01T10:17:56;26.92;;;9.75;;
23119;SDS011;11729;50.836;4.330;2023-02-01T10:20:43;29.02;;;9.02;;
23119;SDS011;11729;50.836;4.330;2023-02-01T10:23:34;33.88;;;9.57;;
23119;SDS011;11729;50.836;4.330;2023-02-01T10:26:27;29.88;;;9.40;;
23119;SDS011;11729;50.836;4.330;2023-02-01T10:28:59;26.80;;;9.35;;
23119;SDS011;11729;50.836;4.330;2023-02-01T10:31:28;18.77;;;8.82;;
23119;SDS011;11729;50.836;4.330;2023-02-01T10:33:57;26.88;;;9.00;;
23119;SDS011;11729;50.836;4.330;2023-02-01T10:36:29;25.05;;;9.43;;
23119;SDS011;11729;50.836;4.330;2023-02-01T10:39:00;25.65;;;8.68;;
23119;SDS011;11729;50.836;4.330;2023-02-01T10:41:35;29.10;;;9.75;;
23119;SDS011;11729;50.836;4.330;2023-02-01T10:44:05;22.13;;;7.75;;
23119;SDS011;11729;50.836;4.330;2023-02-01T10:46:38;27.30;;;8.40;;
23119;SDS011;11729;50.836;4.330;2023-02-01T10:49:04;28.27;;;8.80;;
23119;SDS011;11729;50.836;4.330;2023-02-01T10:54:22;22.27;;;8.57;;
23119;SDS011;11729;50.836;4.330;2023-02-01T10:57:00;26.83;;;8.68;;
23119;SDS011;11729;50.836;4.330;2023-02-01T10:59:27;27.33;;;7.95;;
23119;SDS011;11729;50.836;4.330;2023-02-01T11:02:00;20.98;;;8.85;;
23119;SDS011;11729;50.836;4.330;2023-02-01T11:04:36;17.67;;;8.13;;
23119;SDS011;11729;50.836;4.330;2023-02-01T11:07:06;22.35;;;7.88;;
23119;SDS011;11729;50.836;4.330;2023-02-01T11:09:41;25.63;;;7.93;;
23119;SDS011;11729;50.836;4.330;2023-02-01T11:12:29;26.65;;;7.75;;
23119;SDS011;11729;50.836;4.330;2023-02-01T11:20:19;21.35;;;7.45;;
23119;SDS011;11729;50.836;4.330;2023-02-01T11:22:58;19.40;;;7.22;;
23119;SDS011;11729;50.836;4.330;2023-02-01T11:25:26;16.27;;;7.13;;
23119;SDS011;11729;50.836;4.330;2023-02-01T11:27:53;23.13;;;7.45;;
23119;SDS011;11729;50.836;4.330;2023-02-01T11:30:42;33.15;;;8.23;;
23119;SDS011;11729;50.836;4.330;2023-02-01T11:33:09;24.88;;;7.43;;
23119;SDS011;11729;50.836;4.330;2023-02-01T11:35:49;20.70;;;7.60;;
23119;SDS011;11729;50.836;4.330;2023-02-01T11:38:21;19.83;;;7.80;;
23119;SDS011;11729;50.836;4.330;2023-02-01T11:40:52;30.08;;;8.23;;
23119;SDS011;11729;50.836;4.330;2023-02-01T11:46:01;22.35;;;7.68;;
23119;SDS011;11729;50.836;4.330;2023-02-01T11:48:29;21.73;;;7.78;;
23119;SDS011;11729;50.836;4.330;2023-02-01T11:53:44;16.45;;;7.53;;
23119;SDS011;11729;50.836;4.330;2023-02-01T11:56:41;20.38;;;7.38;;
23119;SDS011;11729;50.836;4.330;2023-02-01T12:02:16;42.60;;;7.53;;
23119;SDS011;11729;50.836;4.330;2023-02-01T12:16:00;18.88;;;6.45;;
23119;SDS011;11729;50.836;4.330;2023-02-01T12:39:52;16.33;;;7.07;;
23119;SDS011;11729;50.836;4.330;2023-02-01T12:42:42;15.82;;;6.95;;
23119;SDS011;11729;50.836;4.330;2023-02-01T12:45:39;13.55;;;7.07;;
23119;SDS011;11729;50.836;4.330;2023-02-01T12:51:02;13.93;;;6.57;;
23119;SDS011;11729;50.836;4.330;2023-02-01T12:53:43;22.33;;;12.30;;
23119;SDS011;11729;50.836;4.330;2023-02-01T12:56:37;11.55;;;6.57;;
23119;SDS011;11729;50.836;4.330;2023-02-01T12:59:12;15.93;;;6.50;;
23119;SDS011;11729;50.836;4.330;2023-02-01T13:01:49;9.82;;;6.07;;
23119;SDS011;11729;50.836;4.330;2023-02-01T13:04:26;11.77;;;6.00;;
23119;SDS011;11729;50.836;4.330;2023-02-01T13:07:08;10.70;;;5.93;;
23119;SDS011;11729;50.836;4.330;2023-02-01T13:12:18;10.82;;;6.22;;
23119;SDS011;11729;50.836;4.330;2023-02-01T13:14:52;10.82;;;6.35;;
23119;SDS011;11729;50.836;4.330;2023-02-01T13:17:28;10.00;;;5.68;;
23119;SDS011;11729;50.836;4.330;2023-02-01T13:22:39;8.07;;;5.70;;
23119;SDS011;11729;50.836;4.330;2023-02-01T13:25:12;10.02;;;5.97;;
23119;SDS011;11729;50.836;4.330;2023-02-01T13:27:41;13.40;;;6.53;;
23119;SDS011;11729;50.836;4.330;2023-02-01T13:30:11;10.02;;;5.70;;
23119;SDS011;11729;50.836;4.330;2023-02-01T13:35:55;14.25;;;6.75;;
23119;SDS011;11729;50.836;4.330;2023-02-01T13:41:50;17.02;;;6.40;;
23119;SDS011;11729;50.836;4.330;2023-02-01T13:46:16;15.60;;;7.32;;
23119;SDS011;11729;50.836;4.330;2023-02-01T13:51:13;12.80;;;6.60;;
23119;SDS011;11729;50.836;4.330;2023-02-01T13:53:44;13.95;;;6.47;;
23119;SDS011;11729;50.836;4.330;2023-02-01T13:56:13;17.33;;;7.05;;
23119;SDS011;11729;50.836;4.330;2023-02-01T13:58:43;16.30;;;6.63;;
23119;SDS011;11729;50.836;4.330;2023-02-01T14:14:06;14.55;;;7.15;;
23119;SDS011;11729;50.836;4.330;2023-02-01T14:19:26;19.25;;;7.18;;
23119;SDS011;11729;50.836;4.330;2023-02-01T14:21:58;16.33;;;6.55;;
23119;SDS011;11729;50.836;4.330;2023-02-01T14:24:51;17.10;;;6.45;;
23119;SDS011;11729;50.836;4.330;2023-02-01T14:27:23;17.67;;;6.78;;
23119;SDS011;11729;50.836;4.330;2023-02-01T14:29:52;21.65;;;7.05;;
23119;SDS011;11729;50.836;4.330;2023-02-01T14:34:57;19.38;;;6.20;;
23119;SDS011;11729;50.836;4.330;2023-02-01T14:40:04;20.17;;;7.22;;
23119;SDS011;11729;50.836;4.330;2023-02-01T14:53:06;17.02;;;6.55;;
23119;SDS011;11729;50.836;4.330;2023-02-01T14:55:46;22.15;;;7.03;;
23119;SDS011;11729;50.836;4.330;2023-02-01T15:00:58;18.67;;;7.18;;
23119;SDS011;11729;50.836;4.330;2023-02-01T15:09:00;13.68;;;7.78;;
23119;SDS011;11729;50.836;4.330;2023-02-01T15:17:36;18.15;;;7.00;;
23119;SDS011;11729;50.836;4.330;2023-02-01T15:20:22;15.65;;;7.22;;
23119;SDS011;11729;50.836;4.330;2023-02-01T15:22:57;19.97;;;8.00;;
23119;SDS011;11729;50.836;4.330;2023-02-01T15:25:28;17.77;;;7.15;;
23119;SDS011;11729;50.836;4.330;2023-02-01T15:27:55;16.20;;;6.95;;
23119;SDS011;11729;50.836;4.330;2023-02-01T15:30:25;15.38;;;7.43;;
23119;SDS011;11729;50.836;4.330;2023-02-01T15:33:04;24.50;;;8.23;;
23119;SDS011;11729;50.836;4.330;2023-02-01T15:35:43;29.42;;;8.48;;
23119;SDS011;11729;50.836;4.330;2023-02-01T15:38:20;20.02;;;7.68;;
23119;SDS011;11729;50.836;4.330;2023-02-01T15:41:05;15.90;;;6.90;;
23119;SDS011;11729;50.836;4.330;2023-02-01T15:46:09;18.67;;;7.13;;
23119;SDS011;11729;50.836;4.330;2023-02-01T15:48:44;17.27;;;7.88;;
23119;SDS011;11729;50.836;4.330;2023-02-01T15:51:16;22.27;;;6.80;;
23119;SDS011;11729;50.836;4.330;2023-02-01T15:54:00;20.35;;;7.07;;
23119;SDS011;11729;50.836;4.330;2023-02-01T15:56:49;19.63;;;7.70;;
23119;SDS011;11729;50.836;4.330;2023-02-01T15:59:21;19.58;;;9.10;;
23119;SDS011;11729;50.836;4.330;2023-02-01T16:01:50;22.95;;;8.30;;
23119;SDS011;11729;50.836;4.330;2023-02-01T16:07:20;24.73;;;7.78;;
23119;SDS011;11729;50.836;4.330;2023-02-01T16:09:54;16.00;;;7.45;;
23119;SDS011;11729;50.836;4.330;2023-02-01T16:12:44;24.90;;;9.05;;
23119;SDS011;11729;50.836;4.330;2023-02-01T16:15:11;15.07;;;6.82;;
23119;SDS011;11729;50.836;4.330;2023-02-01T16:17:37;23.83;;;7.95;;
23119;SDS011;11729;50.836;4.330;2023-02-01T16:20:03;26.33;;;8.40;;
23119;SDS011;11729;50.836;4.330;2023-02-01T16:22:29;19.85;;;7.38;;
23119;SDS011;11729;50.836;4.330;2023-02-01T16:24:55;22.88;;;7.68;;
23119;SDS011;11729;50.836;4.330;2023-02-01T16:27:23;22.23;;;8.35;;
23119;SDS011;11729;50.836;4.330;2023-02-01T16:29:49;20.63;;;7.50;;
23119;SDS011;11729;50.836;4.330;2023-02-01T16:32:18;15.90;;;7.30;;
23119;SDS011;11729;50.836;4.330;2023-02-01T16:34:46;20.02;;;7.53;;
23119;SDS011;11729;50.836;4.330;2023-02-01T16:37:12;22.60;;;8.18;;
23119;SDS011;11729;50.836;4.330;2023-02-01T16:39:40;23.75;;;8.07;;
23119;SDS011;11729;50.836;4.330;2023-02-01T16:42:13;23.17;;;8.43;;
23119;SDS011;11729;50.836;4.330;2023-02-01T16:44:40;21.13;;;8.63;;
23119;SDS011;11729;50.836;4.330;2023-02-01T16:47:18;21.98;;;8.30;;
23119;SDS011;11729;50.836;4.330;2023-02-01T16:49:45;30.48;;;8.63;;
23119;SDS011;11729;50.836;4.330;2023-02-01T16:52:18;20.25;;;7.13;;
23119;SDS011;11729;50.836;4.330;2023-02-01T16:54:46;23.40;;;8.00;;
23119;SDS011;11729;50.836;4.330;2023-02-01T16:57:13;26.15;;;8.80;;
23119;SDS011;11729;50.836;4.330;2023-02-01T16:59:40;20.30;;;7.70;;
23119;SDS011;11729;50.836;4.330;2023-02-01T17:02:11;27.58;;;9.40;;
23119;SDS011;11729;50.836;4.330;2023-02-01T17:04:38;23.95;;;8.35;;
23119;SDS011;11729;50.836;4.330;2023-02-01T17:07:03;22.67;;;8.48;;
23119;SDS011;11729;50.836;4.330;2023-02-01T17:09:35;22.60;;;8.27;;
23119;SDS011;11729;50.836;4.330;2023-02-01T17:12:03;23.42;;;8.13;;
23119;SDS011;11729;50.836;4.330;2023-02-01T17:14:30;29.10;;;8.52;;
23119;SDS011;11729;50.836;4.330;2023-02-01T17:16:57;18.20;;;7.88;;
23119;SDS011;11729;50.836;4.330;2023-02-01T17:19:23;24.92;;;8.50;;
23119;SDS011;11729;50.836;4.330;2023-02-01T17:21:49;26.08;;;8.65;;
23119;SDS011;11729;50.836;4.330;2023-02-01T17:24:19;31.25;;;8.27;;
23119;SDS011;11729;50.836;4.330;2023-02-01T17:26:47;27.42;;;8.10;;
23119;SDS011;11729;50.836;4.330;2023-02-01T17:29:13;28.23;;;8.45;;
23119;SDS011;11729;50.836;4.330;2023-02-01T17:31:43;26.13;;;8.30;;
23119;SDS011;11729;50.836;4.330;2023-02-01T17:34:13;30.63;;;9.13;;